Time;durP1;ratioP1;P1;durP2;ratioP2;P2;SDS_P1;SDS_P2;PMS_P1;PMS_P2;Temp;Humidity;BMP_temperature;BMP_pressure;BME280_temperature;BME280_humidity;BME280_pressure;Samples;Min_cycle;Max_cycle;Signal;HPM_P1;HPM_P2
2021/12/11 00:00:05;;;;;;;32.90;30.10;;;;;;;23.11;32.83;94118.72;4959586;28;102704;-54
2021/12/11 00:02:33;;;;;;;33.53;30.73;;;;;;;23.13;33.34;94133.59;4958664;28;103200;-54
2021/12/11 00:05:00;;;;;;;31.37;28.70;;;;;;;23.14;33.31;94140.50;4959401;28;103948;-54
2021/12/11 00:07:29;;;;;;;33.20;30.43;;;;;;;23.11;33.00;94134.72;4952897;28;103461;-54
2021/12/11 00:10:02;;;;;;;34.87;31.83;;;;;;;23.11;33.30;94129.38;4959942;28;102746;-54
2021/12/11 00:12:32;;;;;;;32.17;29.37;;;;;;;23.10;32.96;94129.72;4959004;28;103100;-54
2021/12/11 00:15:11;;;;;;;29.70;27.30;;;;;;;23.10;32.73;94140.38;4959011;28;103480;-54
2021/12/11 00:17:36;;;;;;;35.83;32.93;;;;;;;23.10;32.95;94157.13;4954232;28;103278;-54
2021/12/11 00:20:13;;;;;;;34.10;31.30;;;;;;;23.11;33.07;94174.69;4960255;28;102814;-54
2021/12/11 00:22:41;;;;;;;34.57;31.67;;;;;;;23.10;32.75;94167.03;4957894;28;102769;-54
2021/12/11 00:25:09;;;;;;;29.93;27.43;;;;;;;23.08;32.75;94164.69;4959812;28;105015;-54
2021/12/11 00:27:38;;;;;;;31.43;28.83;;;;;;;23.09;32.96;94165.47;4954986;28;102841;-54
2021/12/11 00:30:10;;;;;;;28.10;25.80;;;;;;;23.07;33.08;94179.09;4958799;28;102908;-54
2021/12/11 00:32:37;;;;;;;28.13;25.83;;;;;;;23.09;32.82;94168.91;4958768;28;102625;-54
2021/12/11 00:35:13;;;;;;;28.67;26.30;;;;;;;23.09;32.80;94173.44;4959398;28;102788;-54
2021/12/11 00:37:39;;;;;;;29.00;26.60;;;;;;;23.08;32.98;94185.22;4959094;28;102627;-54
2021/12/11 00:40:21;;;;;;;27.00;24.80;;;;;;;22.85;32.73;94131.50;4954098;28;102786;-53
2021/12/11 00:42:53;;;;;;;29.30;27.00;;;;;;;23.06;32.81;94164.22;4959147;28;103224;-54
2021/12/11 00:45:23;;;;;;;27.63;25.40;;;;;;;23.07;32.96;94165.78;4958756;28;103218;-54
2021/12/11 00:47:55;;;;;;;30.97;28.47;;;;;;;23.07;33.14;94173.00;4959048;28;102870;-54
2021/12/11 00:50:25;;;;;;;31.53;28.97;;;;;;;23.07;32.50;94173.78;4954085;28;102661;-54
2021/12/11 00:53:16;;;;;;;30.73;28.23;;;;;;;23.06;32.82;94160.78;4957759;28;102805;-54
2021/12/11 00:55:46;;;;;;;28.60;26.20;;;;;;;23.07;32.74;94157.03;4959509;28;103249;-54
2021/12/11 00:58:19;;;;;;;33.93;31.03;;;;;;;23.01;32.62;94131.66;4958968;28;103328;-54
2021/12/11 01:00:59;;;;;;;30.30;27.73;;;;;;;23.05;32.93;94137.91;4954482;28;102666;-54
2021/12/11 01:03:30;;;;;;;29.70;27.30;;;;;;;23.06;32.88;94139.47;4957556;28;102910;-54
2021/12/11 01:05:58;;;;;;;31.27;28.57;;;;;;;23.01;32.62;94140.47;4958862;28;103278;-54
2021/12/11 01:08:27;;;;;;;30.30;27.67;;;;;;;23.05;32.76;94137.91;4958556;28;103053;-54
2021/12/11 01:11:04;;;;;;;28.33;26.03;;;;;;;23.05;32.48;94140.59;4959556;28;102819;-54
2021/12/11 01:13:34;;;;;;;33.90;30.87;;;;;;;23.03;32.67;94132.16;4952249;28;103676;-54
2021/12/11 01:16:06;;;;;;;32.10;29.50;;;;;;;23.03;32.51;94124.94;4958934;28;103950;-54
2021/12/11 01:18:35;;;;;;;34.77;31.87;;;;;;;23.03;32.52;94134.81;4957670;28;102769;-54
2021/12/11 01:21:12;;;;;;;35.60;32.70;;;;;;;23.02;32.78;94134.03;4958831;28;103037;-54
2021/12/11 01:23:56;;;;;;;38.83;35.53;;;;;;;23.03;32.68;94138.25;4952363;28;102856;-54
2021/12/11 01:26:22;;;;;;;36.90;33.80;;;;;;;23.02;32.34;94139.34;4958095;28;102784;-54
2021/12/11 01:28:49;;;;;;;31.77;29.17;;;;;;;23.01;32.26;94147.66;4958418;28;103884;-54
2021/12/11 01:31:18;;;;;;;44.53;40.63;;;;;;;23.01;32.25;94145.78;4958718;28;102848;-54
2021/12/11 01:33:44;;;;;;;38.53;35.33;;;;;;;23.02;32.35;94143.91;4954992;28;103221;-54
2021/12/11 01:36:11;;;;;;;35.23;32.17;;;;;;;23.01;32.52;94137.81;4959987;28;103346;-54
2021/12/11 01:38:37;;;;;;;37.43;34.20;;;;;;;22.99;32.40;94126.66;4961979;28;102989;-54
2021/12/11 01:41:12;;;;;;;35.30;32.27;;;;;;;23.01;32.22;94129.00;4962370;28;102893;-54
2021/12/11 01:43:41;;;;;;;38.00;34.60;;;;;;;23.01;32.32;94126.34;4959427;28;102925;-54
2021/12/11 01:46:08;;;;;;;36.80;33.67;;;;;;;23.01;32.46;94115.69;4957511;28;102913;-54
2021/12/11 01:48:38;;;;;;;38.50;35.20;;;;;;;22.95;32.05;94099.13;4961776;28;102673;-54
2021/12/11 01:51:09;;;;;;;37.77;34.67;;;;;;;23.00;32.45;94106.13;4961854;28;103262;-54
2021/12/11 01:53:39;;;;;;;42.97;39.40;;;;;;;22.99;32.68;94110.69;4961568;28;102671;-54
2021/12/11 01:56:11;;;;;;;42.23;38.60;;;;;;;22.99;32.27;94113.34;4956997;28;103330;-54
2021/12/11 01:58:43;;;;;;;40.23;36.83;;;;;;;22.99;32.31;94113.34;4960935;28;103121;-54
2021/12/11 02:01:16;;;;;;;42.13;38.53;;;;;;;22.99;32.18;94112.56;4962253;28;102751;-54
2021/12/11 02:03:43;;;;;;;42.40;38.90;;;;;;;22.94;32.52;94113.56;4961089;28;102767;-54
2021/12/11 02:06:09;;;;;;;42.97;39.47;;;;;;;22.90;32.42;94107.34;4961199;28;103265;-54
2021/12/11 02:08:38;;;;;;;39.33;35.97;;;;;;;22.98;32.28;94122.44;4956473;28;103031;-54
2021/12/11 02:11:09;;;;;;;40.97;37.60;;;;;;;22.97;32.05;94110.22;4961697;28;103470;-54
2021/12/11 02:13:46;;;;;;;41.30;37.70;;;;;;;22.91;32.38;94106.22;4960177;28;102790;-54
2021/12/11 02:16:42;;;;;;;53.90;49.10;;;;;;;22.90;32.42;94115.31;4961577;28;102771;-54
2021/12/11 02:19:28;;;;;;;46.97;43.00;;;;;;;22.98;32.51;94124.31;4955211;28;103363;-54
2021/12/11 02:22:00;;;;;;;50.33;46.10;;;;;;;22.98;32.33;94113.69;4961206;28;102742;-54
2021/12/11 02:24:33;;;;;;;47.50;43.60;;;;;;;22.97;32.21;94115.56;4961413;28;103592;-54
2021/12/11 02:27:00;;;;;;;44.73;41.03;;;;;;;22.95;32.08;94112.44;4961039;28;103495;-54
2021/12/11 02:29:34;;;;;;;42.70;39.27;;;;;;;22.97;32.18;94138.75;4948601;28;103014;-54
2021/12/11 02:32:18;;;;;;;40.90;37.60;;;;;;;22.95;31.76;94136.44;4942082;28;102748;-54
2021/12/11 02:34:53;;;;;;;40.83;37.43;;;;;;;22.96;32.15;94137.19;4940804;28;102788;-54
2021/12/11 02:37:37;;;;;;;43.00;39.47;;;;;;;22.96;31.99;94121.22;4923411;28;102849;-54
2021/12/11 02:40:10;;;;;;;38.80;35.60;;;;;;;22.96;31.99;94111.34;4936414;28;104295;-54
2021/12/11 02:43:14;;;;;;;42.07;38.50;;;;;;;22.94;32.47;94102.91;4941168;28;102794;-54
2021/12/11 02:45:48;;;;;;;39.50;36.20;;;;;;;22.94;32.21;94094.91;4940371;28;103360;-54
2021/12/11 02:48:20;;;;;;;43.37;39.87;;;;;;;22.93;31.92;94096.03;4941567;28;102662;-54
2021/12/11 02:51:28;;;;;;;38.00;34.90;;;;;;;22.95;32.26;94098.34;4939668;28;103469;-54
2021/12/11 02:54:00;;;;;;;40.50;37.00;;;;;;;22.95;32.28;94091.13;4942475;28;104267;-54
2021/12/11 02:56:33;;;;;;;38.50;35.30;;;;;;;22.93;31.94;94081.94;4941310;28;102758;-54
2021/12/11 02:59:11;;;;;;;38.43;35.23;;;;;;;22.95;31.92;94090.38;4954023;28;102698;-54
2021/12/11 03:01:52;;;;;;;38.30;35.20;;;;;;;22.94;32.19;94108.22;4958352;28;102785;-54
2021/12/11 03:04:26;;;;;;;39.63;36.27;;;;;;;22.95;32.34;94101.00;4959374;28;102908;-54
2021/12/11 03:06:54;;;;;;;36.83;33.73;;;;;;;22.94;31.89;94100.25;4958747;28;103557;-54
2021/12/11 03:09:26;;;;;;;34.37;31.53;;;;;;;22.94;32.27;94100.25;4959171;28;102727;-54
2021/12/11 03:11:54;;;;;;;39.87;36.47;;;;;;;22.94;32.10;94110.13;4960177;28;102719;-54
2021/12/11 03:14:21;;;;;;;37.10;33.97;;;;;;;22.92;32.28;94099.00;4955538;28;102874;-54
2021/12/11 03:16:50;;;;;;;35.23;32.33;;;;;;;22.89;32.30;94086.34;4960477;28;102672;-54
2021/12/11 03:19:19;;;;;;;34.23;31.33;;;;;;;22.93;31.97;94088.03;4959915;28;102827;-54
2021/12/11 03:21:45;;;;;;;33.67;30.87;;;;;;;22.93;32.02;94088.03;4960267;28;102776;-54
2021/12/11 03:24:12;;;;;;;33.73;30.93;;;;;;;22.92;31.87;94083.81;4955673;28;104024;-54
2021/12/11 03:26:40;;;;;;;35.83;32.73;;;;;;;22.88;32.00;94077.59;4940424;28;103616;-54
2021/12/11 03:29:07;;;;;;;33.13;30.40;;;;;;;22.92;32.04;94080.38;4959210;28;103241;-54
2021/12/11 03:31:36;;;;;;;32.77;30.07;;;;;;;22.93;32.05;94069.38;4941513;28;102766;-54
2021/12/11 03:34:03;;;;;;;32.83;30.20;;;;;;;22.93;31.86;94061.38;4959138;28;102708;-54
2021/12/11 03:36:32;;;;;;;32.10;29.50;;;;;;;22.90;31.64;94053.28;4954479;28;103451;-54
2021/12/11 03:39:06;;;;;;;30.00;27.50;;;;;;;22.93;32.12;94056.06;4959681;28;102660;-54
2021/12/11 03:41:31;;;;;;;33.43;30.57;;;;;;;22.94;31.63;94056.84;4959787;28;103293;-54
2021/12/11 03:43:57;;;;;;;33.93;31.10;;;;;;;22.95;31.99;94053.06;4960443;28;102649;-54
2021/12/11 03:46:23;;;;;;;34.10;31.30;;;;;;;22.92;31.74;94049.19;4955441;28;104311;-54
2021/12/11 03:48:58;;;;;;;32.90;30.10;;;;;;;22.89;31.45;94057.06;4960143;28;103999;-54
2021/12/11 03:51:32;;;;;;;32.40;29.70;;;;;;;22.95;32.16;94050.41;4960027;28;102716;-54
2021/12/11 03:54:00;;;;;;;34.60;31.80;;;;;;;22.95;31.66;94067.16;4960143;28;102722;-54
2021/12/11 03:56:26;;;;;;;31.23;28.77;;;;;;;22.96;31.76;94079.38;4959295;28;104240;-54
2021/12/11 03:58:52;;;;;;;33.03;30.33;;;;;;;22.97;31.68;94074.81;4936399;28;103585;-54
2021/12/11 04:01:34;;;;;;;29.50;27.10;;;;;;;22.97;31.50;94083.59;4958618;28;103275;-54
2021/12/11 04:04:08;;;;;;;27.83;25.53;;;;;;;22.94;31.71;94084.25;4959689;28;102765;-54
2021/12/11 04:06:33;;;;;;;28.17;25.90;;;;;;;22.89;31.52;94081.03;4960096;28;102754;-54
2021/12/11 04:09:04;;;;;;;28.37;26.07;;;;;;;23.00;31.62;94096.25;4953884;28;102694;-54
2021/12/11 04:11:32;;;;;;;28.07;25.73;;;;;;;23.01;31.78;94089.84;4958917;28;102881;-54
2021/12/11 04:14:05;;;;;;;26.93;24.83;;;;;;;23.01;31.35;94084.53;4959139;28;102712;-54
2021/12/11 04:16:31;;;;;;;26.33;24.13;;;;;;;23.02;31.82;94086.06;4958948;28;103182;-54
2021/12/11 04:18:57;;;;;;;27.80;25.50;;;;;;;23.02;31.45;94085.28;4956074;28;103342;-54
2021/12/11 04:21:23;;;;;;;25.70;23.60;;;;;;;23.01;31.63;94073.88;4957329;28;103015;-54
2021/12/11 04:23:48;;;;;;;26.00;23.90;;;;;;;23.04;31.85;94070.53;4941692;28;102978;-54
2021/12/11 04:26:14;;;;;;;24.83;22.83;;;;;;;23.01;31.65;94067.72;4958930;28;102989;-54
2021/12/11 04:28:41;;;;;;;25.70;23.60;;;;;;;23.06;31.42;94070.97;4959218;28;103761;-54
2021/12/11 04:31:11;;;;;;;24.80;22.73;;;;;;;23.06;31.71;94064.88;4953367;28;102841;-54
2021/12/11 04:33:41;;;;;;;24.40;22.30;;;;;;;23.05;31.34;94061.44;4958831;28;102833;-54
2021/12/11 04:36:10;;;;;;;23.90;21.90;;;;;;;23.02;31.24;94043.44;4958574;28;103214;-54
2021/12/11 04:38:37;;;;;;;24.50;22.50;;;;;;;23.06;31.44;94048.88;4958780;28;103742;-54
2021/12/11 04:41:04;;;;;;;23.60;21.80;;;;;;;23.07;31.65;94053.13;4953926;28;102811;-54
2021/12/11 04:43:30;;;;;;;23.47;21.60;;;;;;;23.05;31.68;94042.00;4958406;28;102762;-54
2021/12/11 04:46:04;;;;;;;22.80;20.90;;;;;;;23.05;31.50;94050.78;4957957;28;102696;-54
2021/12/11 04:53:54;;;;;;;21.93;20.17;;;;;;;23.06;31.68;94056.88;4954281;28;102849;-54
2021/12/11 05:10:01;;;;;;;17.87;16.47;;;;;;;23.06;31.74;94027.56;4951397;28;103160;-54
2021/12/11 05:12:35;;;;;;;17.97;16.43;;;;;;;23.09;31.85;94030.34;4962095;28;102845;-54
2021/12/11 05:15:12;;;;;;;17.47;15.70;;;;;;;23.10;32.07;94033.78;4957101;28;102955;-54
2021/12/11 05:17:38;;;;;;;15.20;13.80;;;;;;;23.12;31.50;94036.91;4961992;28;103466;-53
2021/12/11 05:20:06;;;;;;;14.57;13.33;;;;;;;23.10;31.37;94034.56;4961455;28;103283;-54
2021/12/11 05:22:32;;;;;;;13.27;12.07;;;;;;;23.10;31.46;94031.91;4962049;28;102824;-54
2021/12/11 05:24:57;;;;;;;13.60;12.50;;;;;;;23.11;31.65;94025.47;4961848;28;102690;-53
2021/12/11 05:27:25;;;;;;;13.10;11.77;;;;;;;23.13;31.55;94029.69;4956117;28;102822;-53
2021/12/11 05:29:51;;;;;;;11.97;10.97;;;;;;;23.15;31.37;94035.47;4962361;28;103305;-54
2021/12/11 05:32:21;;;;;;;12.10;11.20;;;;;;;23.14;31.38;94037.34;4943940;28;102866;-54
2021/12/11 05:34:47;;;;;;;11.50;10.50;;;;;;;23.13;31.51;94032.34;4961422;28;102789;-54
2021/12/11 05:37:13;;;;;;;10.80;9.80;;;;;;;23.11;31.77;94038.78;4956116;28;102832;-54
2021/12/11 05:39:40;;;;;;;9.90;9.10;;;;;;;23.07;31.55;94029.13;4951917;28;102882;-54
2021/12/11 05:42:06;;;;;;;10.07;9.27;;;;;;;23.07;31.60;94029.13;4959165;28;102652;-54
2021/12/11 05:44:32;;;;;;;9.60;8.80;;;;;;;23.08;31.60;94018.16;4962260;28;102754;-54
2021/12/11 05:46:59;;;;;;;9.63;8.83;;;;;;;23.08;31.96;94023.47;4961979;28;102659;-54
2021/12/11 05:49:26;;;;;;;9.30;8.23;;;;;;;23.08;31.68;94030.69;4956323;28;102701;-54
2021/12/11 05:51:53;;;;;;;8.30;7.70;;;;;;;23.07;31.45;94040.56;4957194;28;102775;-54
2021/12/11 05:54:23;;;;;;;8.67;7.87;;;;;;;23.08;31.77;94041.34;4944441;28;102187;-54
2021/12/11 05:56:54;;;;;;;8.30;7.60;;;;;;;23.04;31.81;94030.56;4960584;28;103403;-54
2021/12/11 05:59:20;;;;;;;8.83;7.67;;;;;;;23.08;31.88;94036.03;4942739;28;103364;-54
2021/12/11 06:01:55;;;;;;;8.53;7.80;;;;;;;23.06;31.75;94033.69;4959905;28;102722;-53
2021/12/11 06:04:26;;;;;;;7.77;7.13;;;;;;;23.11;31.45;94049.44;4961775;28;102680;-54
2021/12/11 06:06:53;;;;;;;7.03;6.47;;;;;;;23.14;31.84;94052.56;4962222;28;103315;-54
2021/12/11 06:09:22;;;;;;;7.30;6.60;;;;;;;23.11;32.15;94051.34;4956435;28;102771;-54
2021/12/11 06:11:51;;;;;;;6.67;6.07;;;;;;;23.15;31.96;94046.13;4960345;28;102722;-53
2021/12/11 06:14:18;;;;;;;6.37;5.77;;;;;;;23.21;32.36;94048.25;4961989;28;102952;-53
2021/12/11 06:16:46;;;;;;;6.10;5.60;;;;;;;23.23;31.92;94048.72;4961690;28;103290;-53
2021/12/11 06:19:13;;;;;;;7.50;5.90;;;;;;;23.25;32.00;94045.72;4960739;28;102743;-53
2021/12/11 06:21:38;;;;;;;9.07;8.20;;;;;;;23.11;32.12;94041.47;4953338;28;103433;-53
2021/12/11 06:24:05;;;;;;;9.20;7.63;;;;;;;23.01;31.60;94041.91;4961849;28;102834;-53
2021/12/11 06:26:31;;;;;;;7.93;7.03;;;;;;;22.98;31.51;94037.19;4960240;28;102829;-54
2021/12/11 06:28:57;;;;;;;7.73;6.93;;;;;;;22.91;31.05;94047.63;4959550;28;103388;-54
2021/12/11 06:31:23;;;;;;;7.23;6.53;;;;;;;22.91;31.27;94052.19;4956268;28;102888;-54
2021/12/11 06:33:53;;;;;;;8.13;7.40;;;;;;;22.93;30.91;94056.06;4960536;28;102924;-54
2021/12/11 06:36:21;;;;;;;8.40;7.70;;;;;;;22.95;31.67;94061.06;4960968;28;103625;-54
2021/12/11 06:38:51;;;;;;;9.20;8.30;;;;;;;22.95;31.55;94053.84;4961045;28;103643;-53
2021/12/11 06:41:20;;;;;;;9.20;8.40;;;;;;;22.97;31.28;94046.31;4958872;28;103166;-54
2021/12/11 06:43:45;;;;;;;10.57;9.67;;;;;;;22.98;31.63;94058.50;4954224;28;102758;-54
2021/12/11 06:46:11;;;;;;;11.00;10.00;;;;;;;22.75;31.74;94020.03;4958677;28;103109;-53
2021/12/11 06:48:37;;;;;;;11.13;10.23;;;;;;;22.75;31.69;94020.81;4958888;28;103326;-54
2021/12/11 06:51:05;;;;;;;11.57;10.57;;;;;;;22.94;31.85;94046.97;4959259;28;103104;-54
2021/12/11 06:53:39;;;;;;;11.37;10.50;;;;;;;22.94;31.93;94051.50;4954256;28;102723;-54
2021/12/11 06:56:06;;;;;;;10.63;9.80;;;;;;;22.95;31.90;94053.84;4960061;28;104849;-54
2021/12/11 06:58:32;;;;;;;11.90;10.83;;;;;;;22.96;31.90;94044.75;4961228;28;103596;-54
2021/12/11 07:00:59;;;;;;;11.80;10.90;;;;;;;22.89;31.68;94039.19;4958962;28;104611;-54
2021/12/11 07:03:25;;;;;;;12.07;11.07;;;;;;;22.97;31.97;94051.63;4960289;28;102910;-54
2021/12/11 07:05:51;;;;;;;12.67;11.57;;;;;;;22.97;31.38;94048.97;4956239;28;103019;-54
2021/12/11 07:08:18;;;;;;;11.50;10.50;;;;;;;22.97;31.84;94050.84;4960549;28;103240;-54
2021/12/11 07:10:45;;;;;;;11.57;10.37;;;;;;;22.97;31.60;94048.19;4958983;28;103037;-54
2021/12/11 07:13:12;;;;;;;11.80;10.83;;;;;;;22.98;31.89;94042.53;4961195;28;103374;-54
2021/12/11 07:15:37;;;;;;;12.00;11.07;;;;;;;23.01;31.46;94041.91;4955401;28;102903;-54
2021/12/11 07:18:04;;;;;;;11.80;10.80;;;;;;;23.02;31.25;94032.03;4959891;28;103340;-54
2021/12/11 07:20:30;;;;;;;11.30;10.40;;;;;;;22.98;31.65;94041.75;4960652;28;102716;-54
2021/12/11 07:22:56;;;;;;;11.80;10.80;;;;;;;22.99;31.75;94037.97;4960998;28;103070;-54
2021/12/11 07:25:29;;;;;;;11.93;11.03;;;;;;;22.98;31.83;94026.53;4959648;28;102900;-53
2021/12/11 07:27:57;;;;;;;11.53;10.53;;;;;;;22.99;31.64;94032.66;4957229;28;103282;-53
2021/12/11 07:30:24;;;;;;;12.43;11.33;;;;;;;23.00;31.86;94024.31;4951184;28;102639;-53
2021/12/11 07:32:58;;;;;;;12.87;11.87;;;;;;;22.97;32.03;94014.34;4960693;28;102722;-53
2021/12/11 07:35:25;;;;;;;12.43;11.27;;;;;;;23.01;31.78;94025.09;4959668;28;102885;-53
2021/12/11 07:37:51;;;;;;;11.97;10.97;;;;;;;23.10;31.69;94020.47;4953170;28;103831;-54
2021/12/11 07:40:20;;;;;;;12.60;11.60;;;;;;;23.06;31.92;94020.38;4958887;28;102849;-54
2021/12/11 07:42:46;;;;;;;11.90;10.90;;;;;;;23.05;31.62;94023.34;4960578;28;102870;-53
2021/12/11 07:45:13;;;;;;;11.73;10.73;;;;;;;23.04;31.88;94019.91;4960219;28;103338;-53
2021/12/11 07:47:39;;;;;;;12.17;11.17;;;;;;;23.07;31.80;94023.81;4958974;28;102600;-53
2021/12/11 07:50:05;;;;;;;12.33;11.33;;;;;;;23.11;31.49;94030.81;4954757;28;102610;-53
2021/12/11 07:52:31;;;;;;;12.27;11.27;;;;;;;23.11;31.69;94014.81;4960730;28;102726;-53
2021/12/11 07:54:56;;;;;;;11.50;10.60;;;;;;;23.10;31.63;94015.94;4958900;28;102744;-53
2021/12/11 07:57:22;;;;;;;12.13;11.13;;;;;;;23.13;31.47;94013.69;4960374;28;103089;-53
2021/12/11 07:59:47;;;;;;;11.50;10.60;;;;;;;23.11;31.86;94017.47;4953664;28;103484;-53
2021/12/11 08:02:13;;;;;;;12.47;11.40;;;;;;;23.09;32.03;94011.72;4959423;28;103567;-53
2021/12/11 08:04:38;;;;;;;13.30;12.10;;;;;;;23.08;31.83;94012.81;4959313;28;103254;-53
2021/12/11 08:07:04;;;;;;;12.87;11.77;;;;;;;23.08;32.01;94023.47;4960065;28;103177;-53
2021/12/11 08:09:30;;;;;;;13.10;12.10;;;;;;;23.09;31.70;94017.03;4959476;28;102742;-52
2021/12/11 08:11:56;;;;;;;14.23;13.13;;;;;;;23.20;32.13;94017.41;4937438;28;102768;-53
2021/12/11 08:14:23;;;;;;;16.00;14.70;;;;;;;23.26;31.79;94024.06;4960011;28;103315;-53
2021/12/11 08:16:53;;;;;;;14.80;13.50;;;;;;;23.29;32.05;94022.59;4959478;28;103373;-53
2021/12/11 08:19:22;;;;;;;15.57;14.27;;;;;;;23.31;32.39;94017.72;4958818;28;102867;-53
2021/12/11 08:21:51;;;;;;;16.03;14.63;;;;;;;23.37;31.32;94017.19;4954769;28;102870;-53
2021/12/11 08:24:18;;;;;;;15.00;13.80;;;;;;;23.38;31.45;94007.31;4958927;28;102633;-53
2021/12/11 08:26:44;;;;;;;17.67;16.10;;;;;;;23.31;31.54;94007.84;4960004;28;104519;-52
2021/12/11 08:29:12;;;;;;;17.90;16.40;;;;;;;23.27;31.92;94016.84;4959679;28;102701;-53
2021/12/11 08:31:41;;;;;;;14.80;13.50;;;;;;;23.18;31.74;94003.63;4958712;28;102786;-53
2021/12/11 08:34:07;;;;;;;17.17;15.77;;;;;;;23.14;32.04;94018.69;4954798;28;103529;-54
2021/12/11 08:36:33;;;;;;;16.47;14.97;;;;;;;22.91;32.05;93983.69;4965332;28;103789;-53
2021/12/11 08:39:00;;;;;;;16.77;15.37;;;;;;;23.09;32.37;94019.69;4961599;28;102859;-53
2021/12/11 08:41:28;;;;;;;15.73;14.27;;;;;;;23.13;32.68;94021.69;4975934;28;102748;-53
2021/12/11 08:44:00;;;;;;;17.23;15.83;;;;;;;23.12;33.03;94010.25;4972396;28;102872;-54
2021/12/11 08:46:28;;;;;;;19.57;17.90;;;;;;;23.19;33.20;94015.06;4958524;28;102820;-53
2021/12/11 08:48:57;;;;;;;17.30;15.77;;;;;;;23.22;32.46;94004.50;4961829;28;102775;-54
2021/12/11 08:51:35;;;;;;;20.43;18.37;;;;;;;23.18;32.69;94000.97;4959200;28;102713;-54
2021/12/11 08:54:01;;;;;;;21.40;18.93;;;;;;;23.22;33.33;93995.75;4959507;28;103344;-53
2021/12/11 08:56:28;;;;;;;19.23;17.53;;;;;;;23.20;33.19;93996.06;4969537;28;103303;-55
2021/12/11 08:58:54;;;;;;;19.20;17.50;;;;;;;23.17;33.48;94002.03;4941795;28;103344;-55
2021/12/11 09:01:33;;;;;;;16.90;14.80;;;;;;;23.19;33.09;93993.75;4959113;28;102825;-55
2021/12/11 09:04:11;;;;;;;15.27;13.97;;;;;;;23.18;32.89;93986.84;4959761;28;103054;-53
2021/12/11 09:06:51;;;;;;;15.33;14.03;;;;;;;23.18;33.81;93978.84;4953879;28;102823;-53
2021/12/11 09:09:26;;;;;;;16.60;15.17;;;;;;;23.24;34.26;93972.97;4978462;28;102740;-53
2021/12/11 09:12:06;;;;;;;17.23;14.80;;;;;;;23.27;33.42;93976.84;4979660;28;103644;-53
2021/12/11 09:14:35;;;;;;;18.17;16.30;;;;;;;23.13;33.89;93958.53;4975447;28;103353;-56
2021/12/11 09:17:25;;;;;;;17.80;15.47;;;;;;;23.17;33.98;93972.72;4969031;28;103377;-53
2021/12/11 09:20:10;;;;;;;16.93;15.43;;;;;;;23.16;33.58;93962.41;4958693;28;103130;-53
2021/12/11 09:22:48;;;;;;;18.00;16.27;;;;;;;23.14;33.91;93944.09;4963400;28;102860;-55
2021/12/11 09:25:42;;;;;;;17.10;15.60;;;;;;;23.18;33.48;93960.19;4978974;28;102808;-55
2021/12/11 09:28:49;;;;;;;19.93;17.80;;;;;;;23.18;33.53;93950.34;4973404;28;103711;-55
2021/12/11 09:31:21;;;;;;;20.37;18.27;;;;;;;23.18;33.91;93938.88;4899640;28;103039;-55
2021/12/11 09:34:02;;;;;;;19.20;17.40;;;;;;;23.18;33.78;93946.88;4967390;28;102767;-55
2021/12/11 09:36:32;;;;;;;18.77;16.83;;;;;;;23.14;33.45;93940.66;4970455;28;103330;-55
2021/12/11 09:39:22;;;;;;;15.53;12.90;;;;;;;23.07;32.76;93944.66;4953485;28;102946;-55
2021/12/11 09:41:47;;;;;;;13.77;10.27;;;;;;;23.07;32.99;93949.22;4950572;28;103276;-55
2021/12/11 09:44:21;;;;;;;13.63;10.63;;;;;;;23.08;33.08;93942.78;4958714;28;103506;-55
2021/12/11 09:46:59;;;;;;;13.00;10.03;;;;;;;23.09;33.11;93931.78;4958811;28;102797;-55
2021/12/11 09:49:30;;;;;;;12.87;11.50;;;;;;;23.08;33.30;93927.56;4959000;28;102663;-55
2021/12/11 09:52:04;;;;;;;17.33;12.07;;;;;;;23.13;33.39;93936.44;4952357;28;102863;-55
2021/12/11 09:54:34;;;;;;;14.50;13.20;;;;;;;23.14;33.31;93930.00;4958245;28;102746;-55
2021/12/11 09:57:14;;;;;;;14.17;12.63;;;;;;;23.18;33.79;93928.22;4961857;28;102476;-55
2021/12/11 09:59:41;;;;;;;14.53;13.13;;;;;;;23.15;33.67;93910.22;4961040;28;103092;-55
2021/12/11 10:02:19;;;;;;;15.47;14.00;;;;;;;23.20;34.48;93915.34;4954216;28;103645;-55
2021/12/11 10:05:00;;;;;;;15.20;13.80;;;;;;;23.17;34.05;93913.34;4962510;28;102780;-55
2021/12/11 10:07:37;;;;;;;13.33;11.70;;;;;;;23.14;35.47;93901.47;4960690;28;103578;-55
2021/12/11 10:10:05;;;;;;;14.20;10.67;;;;;;;23.18;35.55;93902.38;4961519;28;102761;-54
2021/12/11 10:12:37;;;;;;;13.40;12.03;;;;;;;23.20;35.10;93899.38;4956291;28;102904;-55
2021/12/11 10:15:21;;;;;;;17.10;12.63;;;;;;;23.19;35.21;93900.47;4961267;28;102736;-55
2021/12/11 10:18:02;;;;;;;15.20;13.77;;;;;;;23.17;35.73;93897.34;4961690;28;102907;-54
2021/12/11 10:20:37;;;;;;;17.20;14.37;;;;;;;23.22;34.97;93911.25;4961649;28;102732;-54
2021/12/11 10:23:07;;;;;;;16.67;14.93;;;;;;;23.22;35.71;93913.91;4956785;28;102938;-55
2021/12/11 10:25:36;;;;;;;14.93;13.53;;;;;;;23.23;35.26;93909.34;4961773;28;102999;-55
2021/12/11 10:28:06;;;;;;;15.40;14.00;;;;;;;23.22;35.69;93913.91;4960792;28;102785;-54
2021/12/11 10:30:45;;;;;;;16.37;14.77;;;;;;;23.24;35.68;93905.56;4961081;28;103187;-55
2021/12/11 10:33:14;;;;;;;17.60;15.60;;;;;;;23.23;36.76;93899.47;4960477;28;102690;-54
2021/12/11 10:35:46;;;;;;;16.23;14.53;;;;;;;23.24;36.13;93895.69;4956235;28;102722;-55
2021/12/11 10:38:12;;;;;;;16.00;13.90;;;;;;;23.22;35.65;93897.91;4960670;28;104549;-55
2021/12/11 10:40:43;;;;;;;14.70;13.30;;;;;;;23.21;36.17;93903.59;4961571;28;103238;-55
2021/12/11 10:43:13;;;;;;;14.83;13.57;;;;;;;23.19;35.63;93903.16;4961523;28;103476;-55
2021/12/11 10:45:39;;;;;;;13.30;12.10;;;;;;;23.30;36.05;93898.91;4938585;28;103385;-55
2021/12/11 10:48:08;;;;;;;14.03;12.60;;;;;;;23.35;36.02;93894.13;4960799;28;102731;-54
2021/12/11 10:50:42;;;;;;;13.90;12.63;;;;;;;23.42;35.81;93873.03;4956045;28;104767;-54
2021/12/11 10:53:12;;;;;;;13.50;12.10;;;;;;;23.53;35.18;93868.00;4955519;28;104004;-52
2021/12/11 10:55:39;;;;;;;11.43;10.43;;;;;;;23.51;35.92;93851.53;4955282;28;102752;-54
2021/12/11 10:58:15;;;;;;;13.20;11.70;;;;;;;23.56;35.41;93859.34;4949731;28;103374;-55
2021/12/11 11:01:05;;;;;;;12.00;10.83;;;;;;;23.52;35.32;93863.78;4958901;28;103728;-55
2021/12/11 11:03:34;;;;;;;11.40;10.17;;;;;;;23.51;35.70;93867.53;4957905;28;102678;-53
2021/12/11 11:06:00;;;;;;;11.23;10.23;;;;;;;23.46;35.70;93859.78;4957462;28;102946;-52
2021/12/11 11:08:26;;;;;;;11.63;10.50;;;;;;;23.50;35.67;93866.00;4955043;28;103282;-53
2021/12/11 11:10:58;;;;;;;11.07;9.90;;;;;;;23.46;35.53;93859.78;4951701;28;102793;-53
2021/12/11 11:13:25;;;;;;;11.60;9.97;;;;;;;23.44;35.36;93851.34;4955998;28;103282;-53
2021/12/11 11:15:53;;;;;;;11.20;10.17;;;;;;;23.42;35.50;93858.91;4960045;28;102898;-54
2021/12/11 11:18:21;;;;;;;10.03;9.13;;;;;;;23.46;35.42;93851.00;4954750;28;102781;-54
2021/12/11 11:20:56;;;;;;;10.37;9.43;;;;;;;23.45;35.55;93844.13;4958738;28;102922;-54
2021/12/11 11:23:23;;;;;;;10.17;9.27;;;;;;;23.46;35.26;93849.13;4955367;28;102826;-54
2021/12/11 11:25:54;;;;;;;12.10;8.93;;;;;;;23.47;35.26;93840.00;4959927;28;102764;-53
2021/12/11 11:28:26;;;;;;;9.73;8.73;;;;;;;23.47;35.24;93829.34;4958842;28;102684;-54
2021/12/11 11:30:56;;;;;;;10.40;9.40;;;;;;;23.49;35.70;93824.44;4954279;28;103247;-54
2021/12/11 11:33:23;;;;;;;10.77;9.23;;;;;;;23.50;35.33;93818.00;4956170;28;103894;-54
2021/12/11 11:35:50;;;;;;;10.73;9.30;;;;;;;23.46;35.57;93811.03;4955883;28;103104;-54
2021/12/11 11:38:21;;;;;;;9.80;8.97;;;;;;;23.52;35.28;93815.03;4958408;28;103229;-54
2021/12/11 11:40:50;;;;;;;10.30;9.30;;;;;;;23.58;35.54;93819.03;4954078;28;102996;-53
2021/12/11 11:43:17;;;;;;;12.37;11.07;;;;;;;23.58;36.15;93803.81;4954529;28;102775;-54
2021/12/11 11:45:44;;;;;;;11.60;10.60;;;;;;;23.57;36.06;93801.47;4959331;28;102826;-54